PWSweather.com
Personal Weather Stations
Station Observations
WESTON01
WestonSuperMareGB BS22 8RT

WestonSuperMareGB BS22 8RT

Lat: 51.351508, Lon: -2.933373

Elevation: 15

Station Type: Fine Offset WH1080

http://www.westonweather.co.uk

Latest ConditionsUpdated 1:35:00 AM GMT Friday, Aug 17, 2018
Currently Today's Max Today's Min Today's Average
Temperature 58.9°F14.9°C 59.6°F15.3°C 58.9°F14.9°C 59.3°F15.2°C
Dew Point 51.4°F10.8°C 51.5°F10.8°C 51.0°F10.6°C 51.4°F10.8°C
Winds 5.6 mph WNW9.0 kmh WNW 8.4 mph -13.5 kmh - - 5.9 mph 9.5 kmh
Wind Gusts 8.3 mph13.4 kmh 12.8 mph20.6 kmh - -
Humidity 76% 76% 74% 75%
Pressure 30.02 in1016.6 mb 30.02 in1016.6 mb 30.02 in1016.6 mb -
Hour Temp Dew Point Humidity Winds Wind Gusts Pressure Precip Precip Rate Daily Precip Total
01:35 AM 58.9°F14.9°C 51.4°F10.8°C 76% 5.6 mph WNW9.0 kmh WNW 8.3 mph13.4 kmh 30.02 in1016.6 mb 0.00 in0.0 mm 0.00 in0.0 mm 0.00 in0.0 mm
01:30 AM 58.9°F14.9°C 51.4°F10.8°C 76% 5.9 mph WNW9.5 kmh WNW 11.3 mph18.2 kmh 30.02 in1016.6 mb 0.00 in0.0 mm 0.00 in0.0 mm 0.00 in0.0 mm
01:25 AM 59.1°F15.1°C 51.5°F10.8°C 76% 5.8 mph WNW9.3 kmh WNW 11.3 mph18.2 kmh 30.02 in1016.6 mb 0.00 in0.0 mm 0.00 in0.0 mm 0.00 in0.0 mm
01:20 AM 59.1°F15.1°C 51.5°F10.8°C 76% 4.7 mph NW7.6 kmh NW 8.6 mph13.8 kmh 30.02 in1016.6 mb 0.00 in0.0 mm 0.00 in0.0 mm 0.00 in0.0 mm
01:15 AM 59.1°F15.1°C 51.5°F10.8°C 76% 4.5 mph NW7.2 kmh NW 7.1 mph11.4 kmh 30.02 in1016.6 mb 0.00 in0.0 mm 0.00 in0.0 mm 0.00 in0.0 mm
01:10 AM 59.3°F15.2°C 51.3°F10.7°C 75% 5.9 mph NW9.5 kmh NW 9.5 mph15.3 kmh 30.02 in1016.6 mb 0.00 in0.0 mm 0.00 in0.0 mm 0.00 in0.0 mm
01:05 AM 59.3°F15.2°C 51.3°F10.7°C 75% 6.5 mph NW10.5 kmh NW 11.6 mph18.7 kmh 30.02 in1016.6 mb 0.00 in0.0 mm 0.00 in0.0 mm 0.00 in0.0 mm
01:00 AM 59.3°F15.2°C 51.3°F10.7°C 75% 6.4 mph NW10.3 kmh NW 11.6 mph18.7 kmh 30.02 in1016.6 mb 0.00 in0.0 mm 0.00 in0.0 mm 0.00 in0.0 mm
12:55 AM 59.3°F15.2°C 51.0°F10.6°C 74% 7.1 mph WNW11.4 kmh WNW 11.6 mph18.7 kmh 30.02 in1016.6 mb 0.00 in0.0 mm 0.00 in0.0 mm 0.00 in0.0 mm
12:50 AM 59.5°F15.3°C 51.2°F10.7°C 74% 8.4 mph WNW13.5 kmh WNW 12.8 mph20.6 kmh 30.02 in1016.6 mb 0.00 in0.0 mm 0.00 in0.0 mm 0.00 in0.0 mm
12:45 AM 59.6°F15.3°C 51.3°F10.7°C 74% 7.2 mph NW11.6 kmh NW 12.8 mph20.6 kmh 30.02 in1016.6 mb 0.00 in0.0 mm 0.00 in0.0 mm 0.00 in0.0 mm
12:40 AM 59.6°F15.3°C 51.3°F10.7°C 74% 5.4 mph NW8.7 kmh NW 8.3 mph13.4 kmh 30.02 in1016.6 mb 0.00 in0.0 mm 0.00 in0.0 mm 0.00 in0.0 mm
12:35 AM 59.6°F15.3°C 51.3°F10.7°C 74% 5.1 mph W8.2 kmh W 8.3 mph13.4 kmh 30.02 in1016.6 mb 0.00 in0.0 mm 0.00 in0.0 mm 0.00 in0.0 mm
12:30 AM 59.6°F15.3°C 51.3°F10.7°C 74% 4.7 mph WNW7.6 kmh WNW 8.3 mph13.4 kmh 30.02 in1016.6 mb 0.00 in0.0 mm 0.00 in0.0 mm 0.00 in0.0 mm
12:25 AM 59.5°F15.3°C 51.5°F10.8°C 75% 5.3 mph NW8.5 kmh NW 10.4 mph16.7 kmh 30.02 in1016.6 mb 0.00 in0.0 mm 0.00 in0.0 mm 0.00 in0.0 mm
12:20 AM 59.5°F15.3°C 51.5°F10.8°C 75% 5.6 mph NW9.0 kmh NW 10.4 mph16.7 kmh 30.02 in1016.6 mb 0.00 in0.0 mm 0.00 in0.0 mm 0.00 in0.0 mm
12:15 AM 59.5°F15.3°C 51.5°F10.8°C 75% 7.0 mph WNW11.3 kmh WNW 10.4 mph16.7 kmh 30.02 in1016.6 mb 0.00 in0.0 mm 0.00 in0.0 mm 0.00 in0.0 mm
12:10 AM 59.3°F15.2°C 51.3°F10.7°C 75% 6.1 mph WNW9.8 kmh WNW 10.7 mph17.2 kmh 30.02 in1016.6 mb 0.00 in0.0 mm 0.00 in0.0 mm 0.00 in0.0 mm
12:05 AM 59.1°F15.1°C 51.5°F10.8°C 76% 4.8 mph NW7.7 kmh NW 10.7 mph17.2 kmh 30.02 in1016.6 mb 0.00 in0.0 mm 0.00 in0.0 mm 0.00 in0.0 mm
12:00 AM 58.9°F14.9°C 51.4°F10.8°C 76% 5.1 mph WNW8.2 kmh WNW 7.1 mph11.4 kmh 30.02 in1016.6 mb 0.00 in0.0 mm 0.00 in0.0 mm 0.00 in0.0 mm